createdAt,value
2023-03-26T00:01:21.369Z,12.30
2023-03-26T00:03:53.927Z,13.50
2023-03-26T00:06:23.001Z,13.00
2023-03-26T00:08:50.758Z,13.90
2023-03-26T00:11:18.371Z,13.80
2023-03-26T00:13:47.741Z,13.10
2023-03-26T00:16:16.665Z,13.10
2023-03-26T00:18:43.632Z,13.20
2023-03-26T00:21:14.546Z,12.20
2023-03-26T00:23:41.598Z,12.90
2023-03-26T00:26:11.281Z,11.10
2023-03-26T00:28:41.469Z,9.90
2023-03-26T00:31:09.952Z,10.10
2023-03-26T00:33:56.626Z,10.30
2023-03-26T00:36:26.049Z,9.20
2023-03-26T00:38:54.012Z,9.40
2023-03-26T00:41:25.046Z,9.60
2023-03-26T00:43:56.101Z,9.20
2023-03-26T00:46:27.704Z,8.60
2023-03-26T00:48:58.628Z,8.60
2023-03-26T00:51:25.790Z,7.30
2023-03-26T00:53:52.583Z,5.80
2023-03-26T00:56:20.544Z,5.30
2023-03-26T00:58:50.082Z,4.70
2023-03-26T01:01:20.853Z,4.90
2023-03-26T01:04:06.906Z,4.40
2023-03-26T01:06:36.610Z,3.00
2023-03-26T01:09:06.993Z,2.10
2023-03-26T01:11:34.828Z,2.20
2023-03-26T01:14:10.999Z,1.50
2023-03-26T01:16:52.490Z,1.00
2023-03-26T01:19:57.900Z,0.70
2023-03-26T01:22:25.775Z,0.60
2023-03-26T01:24:56.705Z,0.60
2023-03-26T01:27:28.369Z,0.80
2023-03-26T01:29:59.214Z,0.50
2023-03-26T01:32:31.041Z,0.60
2023-03-26T01:35:26.041Z,0.50
2023-03-26T01:38:10.924Z,0.40
2023-03-26T01:40:49.603Z,0.60
2023-03-26T01:43:19.356Z,0.50
2023-03-26T01:45:46.410Z,0.60
2023-03-26T01:48:13.447Z,0.60
2023-03-26T01:50:40.343Z,0.60
2023-03-26T01:53:07.671Z,0.70
2023-03-26T01:55:49.596Z,0.70
2023-03-26T02:01:46.191Z,0.70
2023-03-26T02:04:45.618Z,0.60
2023-03-26T02:07:23.720Z,0.70
2023-03-26T02:09:53.056Z,0.70
2023-03-26T02:12:25.084Z,0.90
2023-03-26T02:14:53.392Z,1.00
2023-03-26T02:17:24.348Z,0.80
2023-03-26T02:19:51.858Z,0.80
2023-03-26T02:22:18.824Z,0.80
2023-03-26T02:24:48.235Z,0.80
2023-03-26T02:27:18.546Z,0.70
2023-03-26T02:29:47.670Z,0.90
2023-03-26T02:32:14.482Z,0.80
2023-03-26T02:34:42.752Z,1.20
2023-03-26T02:37:09.866Z,0.90
2023-03-26T02:39:37.232Z,1.10
2023-03-26T02:42:16.157Z,0.80
2023-03-26T02:44:46.790Z,0.80
2023-03-26T02:47:36.851Z,1.10
2023-03-26T02:50:22.314Z,1.10
2023-03-26T02:53:06.493Z,1.00
2023-03-26T02:55:35.858Z,0.70
2023-03-26T02:58:02.886Z,0.80
2023-03-26T03:00:36.626Z,0.90
2023-03-26T03:03:26.979Z,0.80
2023-03-26T03:05:57.567Z,0.70
2023-03-26T03:08:32.180Z,0.70
2023-03-26T03:11:24.883Z,0.80
2023-03-26T03:13:52.350Z,0.60
2023-03-26T03:16:22.801Z,0.70
2023-03-26T03:18:58.116Z,0.90
2023-03-26T03:21:46.589Z,0.90
2023-03-26T03:24:13.918Z,0.70
2023-03-26T03:26:45.827Z,0.60
2023-03-26T03:29:19.669Z,0.90
2023-03-26T03:31:47.451Z,0.90
2023-03-26T03:34:25.942Z,0.70
2023-03-26T03:36:52.957Z,0.80
2023-03-26T03:39:33.017Z,0.70
2023-03-26T03:42:00.459Z,0.80
2023-03-26T03:44:27.512Z,0.80
2023-03-26T03:46:56.189Z,0.80
2023-03-26T03:49:22.932Z,0.70
2023-03-26T03:51:50.016Z,0.70
2023-03-26T03:54:30.677Z,0.80
2023-03-26T03:57:06.545Z,0.80
2023-03-26T03:59:48.049Z,0.80
2023-03-26T04:02:26.281Z,0.80
2023-03-26T04:05:00.556Z,0.80
2023-03-26T04:07:30.624Z,0.60
2023-03-26T04:10:08.151Z,0.90
2023-03-26T04:13:02.515Z,0.60
2023-03-26T04:15:52.971Z,0.70
2023-03-26T04:18:20.342Z,1.00
2023-03-26T04:20:47.567Z,0.60
2023-03-26T04:23:22.581Z,0.60
2023-03-26T04:25:56.692Z,1.00
2023-03-26T04:28:42.445Z,0.60
2023-03-26T04:31:24.615Z,0.70
2023-03-26T04:34:00.153Z,0.70
2023-03-26T04:36:29.589Z,0.70
2023-03-26T04:38:58.499Z,0.80
2023-03-26T04:41:43.373Z,0.60
2023-03-26T04:44:22.630Z,0.90
2023-03-26T04:46:58.419Z,0.70
2023-03-26T04:49:39.458Z,0.90
2023-03-26T04:52:07.377Z,0.70
2023-03-26T04:54:52.761Z,0.80
2023-03-26T04:57:36.167Z,0.80
2023-03-26T05:00:19.422Z,0.80
2023-03-26T05:03:01.609Z,0.50
2023-03-26T05:05:30.322Z,0.60
2023-03-26T05:07:58.679Z,0.70
2023-03-26T05:10:27.630Z,0.70
2023-03-26T05:13:00.032Z,0.70
2023-03-26T05:15:30.555Z,0.70
2023-03-26T05:18:02.278Z,0.90
2023-03-26T05:20:34.261Z,0.80
2023-03-26T05:23:05.670Z,1.00
2023-03-26T05:25:35.369Z,0.90
2023-03-26T05:28:03.248Z,1.00
2023-03-26T05:30:37.405Z,1.00
2023-03-26T05:33:05.358Z,1.20
2023-03-26T05:35:39.917Z,1.00
2023-03-26T05:38:08.337Z,0.70
2023-03-26T05:40:35.925Z,1.10
2023-03-26T05:43:05.044Z,1.10
2023-03-26T05:45:49.133Z,1.10
2023-03-26T05:48:21.633Z,1.10
2023-03-26T05:50:53.161Z,1.20
2023-03-26T05:53:28.496Z,1.10
2023-03-26T05:56:13.872Z,1.00
2023-03-26T05:58:59.779Z,1.20
2023-03-26T06:01:46.304Z,1.00
2023-03-26T06:04:18.747Z,1.20
2023-03-26T06:07:11.318Z,0.90
2023-03-26T06:09:40.914Z,0.70
2023-03-26T06:12:08.608Z,0.60
2023-03-26T06:14:38.305Z,0.90
2023-03-26T06:17:25.937Z,0.80
2023-03-26T06:20:08.093Z,0.80
2023-03-26T06:22:40.569Z,0.90
2023-03-26T06:25:16.760Z,0.90
2023-03-26T06:28:02.766Z,0.60
2023-03-26T06:30:39.308Z,0.90
2023-03-26T06:33:25.369Z,0.80
2023-03-26T06:35:52.831Z,0.70
2023-03-26T06:38:20.385Z,0.90
2023-03-26T06:40:51.180Z,0.90
2023-03-26T06:43:27.274Z,0.90
2023-03-26T13:25:20.423Z,1.00
2023-03-26T13:28:00.271Z,0.80
2023-03-26T13:30:42.053Z,0.80
2023-03-26T13:33:21.456Z,0.70
2023-03-26T13:36:14.358Z,0.80
2023-03-26T13:38:58.892Z,0.70
2023-03-26T13:41:30.036Z,0.90
2023-03-26T13:44:04.824Z,0.70
2023-03-26T13:46:35.885Z,0.80
2023-03-26T13:49:05.660Z,0.70
2023-03-26T13:51:42.295Z,0.60
2023-03-26T13:54:16.353Z,0.80
2023-03-26T13:56:54.747Z,1.00
2023-03-26T13:59:27.265Z,0.70
2023-03-26T14:02:03.257Z,0.90
2023-03-26T14:04:37.154Z,1.00
2023-03-26T14:07:08.851Z,0.70
2023-03-26T14:09:55.466Z,0.60
2023-03-26T14:12:34.137Z,0.80
2023-03-26T14:15:05.518Z,0.70
2023-03-26T14:17:41.561Z,0.70
2023-03-26T14:20:17.452Z,0.80
2023-03-26T14:23:11.197Z,0.60
2023-03-26T14:25:49.836Z,0.70
2023-03-26T14:28:38.641Z,0.80
2023-03-26T14:31:29.051Z,0.70
2023-03-26T14:34:02.795Z,0.50
2023-03-26T14:36:47.936Z,0.80
2023-03-26T14:39:52.404Z,0.50
2023-03-26T14:42:29.893Z,0.60
2023-03-26T14:45:09.546Z,0.40
2023-03-26T14:48:03.832Z,0.70
2023-03-26T14:50:42.761Z,0.60
2023-03-26T14:53:13.856Z,0.70
2023-03-26T14:55:50.907Z,0.80
2023-03-26T14:58:48.860Z,0.90
2023-03-26T15:01:25.541Z,1.30
2023-03-26T15:04:12.613Z,0.90
2023-03-26T15:07:10.666Z,1.00
2023-03-26T15:10:02.630Z,1.00
2023-03-26T15:12:52.325Z,0.70
2023-03-26T15:15:28.353Z,0.60
2023-03-26T15:18:06.963Z,0.50
2023-03-26T15:21:15.510Z,0.50
2023-03-26T15:24:06.906Z,0.60
2023-03-26T15:26:48.532Z,0.40
2023-03-26T15:29:35.567Z,0.50
2023-03-26T15:32:18.297Z,0.50
2023-03-26T15:35:10.080Z,0.70
2023-03-26T15:37:49.436Z,0.40
2023-03-26T15:40:33.916Z,0.40
2023-03-26T15:43:12.681Z,0.50
2023-03-26T15:45:41.357Z,0.50
2023-03-26T15:48:11.969Z,0.50
2023-03-26T15:50:58.879Z,0.60
2023-03-26T15:53:28.915Z,0.60
2023-03-26T15:56:20.676Z,0.60
2023-03-26T15:58:59.566Z,0.50
2023-03-26T16:02:04.683Z,0.50
2023-03-26T16:04:52.000Z,0.40
2023-03-26T16:07:58.853Z,0.50
2023-03-26T16:10:40.800Z,0.50
2023-03-26T16:13:17.420Z,0.50
2023-03-26T16:16:09.649Z,0.50
2023-03-26T16:18:37.961Z,0.60
2023-03-26T16:21:36.622Z,0.70
2023-03-26T16:24:03.753Z,0.80
2023-03-26T16:26:45.505Z,0.70
2023-03-26T16:32:10.933Z,0.80
2023-03-26T16:34:47.658Z,0.70
2023-03-26T16:37:37.199Z,1.60
2023-03-26T16:40:34.524Z,0.80
2023-03-26T16:43:24.326Z,0.70
2023-03-26T16:46:05.884Z,0.80
2023-03-26T16:49:01.118Z,1.00
2023-03-26T16:51:53.930Z,1.00
2023-03-26T16:54:24.852Z,0.90
2023-03-26T16:57:23.726Z,0.70
2023-03-26T17:00:23.567Z,0.60
2023-03-26T17:03:03.648Z,0.80
2023-03-26T17:05:34.360Z,0.70
2023-03-26T17:08:38.574Z,6.40
2023-03-26T17:11:21.621Z,3.70
2023-03-26T17:14:22.569Z,1.80
2023-03-26T17:17:19.069Z,1.40
2023-03-26T17:19:55.096Z,5.20
2023-03-26T17:22:36.878Z,4.70
2023-03-26T17:25:39.103Z,2.50
2023-03-26T17:28:40.562Z,5.00
2023-03-26T17:31:18.804Z,9.00
2023-03-26T17:33:47.952Z,12.30
2023-03-26T17:36:29.891Z,21.90
2023-03-26T17:39:17.312Z,11.80
2023-03-26T17:41:51.117Z,10.00
2023-03-26T17:44:38.019Z,27.30
2023-03-26T17:47:06.655Z,13.20
2023-03-26T17:49:34.104Z,8.40
2023-03-26T17:52:15.140Z,8.60
2023-03-26T17:54:44.343Z,11.70
2023-03-26T17:57:16.994Z,12.80
2023-03-26T17:59:44.245Z,15.90
2023-03-26T18:02:16.221Z,11.40
2023-03-26T18:04:45.690Z,11.50
2023-03-26T18:07:37.475Z,13.90
2023-03-26T18:10:43.135Z,11.80
2023-03-26T18:13:31.625Z,8.40
2023-03-26T18:16:15.148Z,7.60
2023-03-26T18:18:48.587Z,19.30
2023-03-26T18:21:38.285Z,14.00
2023-03-26T18:24:06.703Z,7.70
2023-03-26T18:26:42.865Z,7.70
2023-03-26T18:29:25.416Z,7.40
2023-03-26T18:32:19.906Z,12.20
2023-03-26T18:34:52.463Z,16.80
2023-03-26T18:37:21.106Z,15.00
2023-03-26T18:39:59.001Z,16.60
2023-03-26T18:42:26.217Z,19.80
2023-03-26T18:44:53.145Z,17.40
2023-03-26T18:47:20.260Z,15.60
2023-03-26T18:49:48.280Z,19.30
2023-03-26T18:52:16.969Z,15.70
2023-03-26T18:54:51.079Z,13.90
2023-03-26T18:57:22.973Z,8.30
2023-03-26T18:59:52.472Z,8.80
2023-03-26T19:02:19.496Z,6.90
2023-03-26T19:04:47.210Z,6.60
2023-03-26T19:07:16.119Z,4.70
2023-03-26T19:09:43.479Z,6.10
2023-03-26T19:12:20.093Z,9.30
2023-03-26T19:14:58.408Z,5.70
2023-03-26T19:17:34.402Z,3.80
2023-03-26T19:20:01.821Z,4.00
2023-03-26T19:22:29.054Z,3.70
2023-03-26T19:25:01.065Z,5.10
2023-03-26T19:27:28.278Z,7.60
2023-03-26T19:29:57.544Z,4.00
2023-03-26T19:32:32.471Z,6.10
2023-03-26T19:35:00.268Z,5.90
2023-03-26T19:37:31.668Z,4.20
2023-03-26T19:40:22.663Z,5.10
2023-03-26T19:42:50.768Z,10.60
2023-03-26T19:45:19.900Z,6.90
2023-03-26T19:47:50.171Z,8.90
2023-03-26T19:50:26.603Z,4.70
2023-03-26T19:53:16.774Z,4.30
2023-03-26T19:55:55.629Z,3.20
2023-03-26T19:58:22.707Z,2.40
2023-03-26T20:00:51.664Z,2.40
2023-03-26T20:03:40.585Z,2.20
2023-03-26T20:08:40.490Z,2.00
2023-03-26T20:16:37.174Z,2.20
2023-03-26T20:19:03.780Z,1.50
2023-03-26T20:21:31.822Z,1.60
2023-03-26T20:23:58.764Z,1.60
2023-03-26T20:26:25.007Z,1.60
2023-03-26T20:28:53.380Z,1.60
2023-03-26T20:31:22.346Z,2.20
2023-03-26T20:33:49.741Z,1.70
2023-03-26T20:36:32.653Z,1.50
2023-03-26T20:39:04.849Z,1.40
2023-03-26T20:41:39.452Z,1.40
2023-03-26T20:44:16.418Z,1.30
2023-03-26T20:46:43.321Z,1.60
2023-03-26T20:49:10.144Z,1.50
2023-03-26T20:51:37.739Z,1.40
2023-03-26T20:54:13.190Z,1.30
2023-03-26T20:56:41.070Z,1.70
2023-03-26T20:59:11.393Z,1.80
2023-03-26T21:01:38.940Z,2.30
2023-03-26T21:04:06.339Z,1.80
2023-03-26T21:06:32.986Z,2.30
2023-03-26T21:08:59.687Z,1.30
2023-03-26T21:11:52.414Z,1.30
2023-03-26T21:14:24.850Z,1.30
2023-03-26T21:16:51.982Z,1.10
2023-03-26T21:19:18.771Z,1.50
2023-03-26T21:24:57.594Z,1.80
2023-03-26T21:27:52.304Z,1.80
2023-03-26T21:30:19.208Z,1.70
2023-03-26T21:32:46.500Z,1.60
2023-03-26T21:35:14.185Z,1.80
2023-03-26T21:37:43.697Z,1.30
2023-03-26T21:40:14.417Z,1.60
2023-03-26T21:42:42.208Z,1.70
2023-03-26T21:45:09.832Z,1.60
2023-03-26T21:47:37.022Z,1.50
2023-03-26T21:50:04.522Z,1.50
2023-03-26T21:52:31.583Z,1.60
2023-03-26T21:55:00.195Z,1.30
2023-03-26T21:57:39.019Z,1.70
2023-03-26T22:00:14.286Z,1.00
2023-03-26T22:03:02.926Z,1.20
2023-03-26T22:05:59.428Z,1.50
2023-03-26T22:08:36.113Z,1.50
2023-03-26T22:11:02.278Z,1.30
2023-03-26T22:13:28.691Z,1.50
2023-03-26T22:15:56.307Z,1.70
2023-03-26T22:18:25.253Z,1.50
2023-03-26T22:20:56.006Z,1.50
2023-03-26T22:23:22.908Z,1.70
2023-03-26T22:25:49.309Z,1.60
2023-03-26T22:28:15.641Z,1.90
2023-03-26T22:30:42.225Z,1.70
2023-03-26T22:33:11.556Z,1.80
2023-03-26T22:35:41.383Z,2.00
2023-03-26T22:38:09.084Z,1.80
2023-03-26T22:40:35.487Z,1.90
2023-03-26T22:51:04.794Z,1.80
2023-03-26T22:53:32.380Z,1.70
2023-03-26T22:55:59.642Z,1.80
2023-03-26T22:58:28.738Z,2.10
2023-03-26T23:01:07.938Z,1.80
2023-03-26T23:03:37.032Z,2.20
2023-03-26T23:06:06.381Z,2.00
2023-03-26T23:08:35.046Z,2.40
2023-03-26T23:11:02.295Z,2.10
2023-03-26T23:13:31.074Z,2.00
2023-03-26T23:15:58.030Z,2.40
2023-03-26T23:18:25.089Z,2.40
2023-03-26T23:20:57.244Z,2.70
2023-03-26T23:23:29.855Z,3.80
2023-03-26T23:26:01.241Z,2.90
2023-03-26T23:28:33.218Z,4.50
2023-03-26T23:31:02.270Z,3.10
2023-03-26T23:33:32.147Z,3.60
2023-03-26T23:36:00.278Z,3.50
2023-03-26T23:38:43.629Z,3.40
2023-03-26T23:41:15.454Z,4.20
2023-03-26T23:43:54.683Z,5.10
2023-03-26T23:46:23.969Z,5.00
2023-03-26T23:48:52.492Z,5.20
2023-03-26T23:51:22.549Z,4.30
2023-03-26T23:53:49.886Z,4.10
2023-03-26T23:56:23.791Z,5.70
2023-03-26T23:58:50.683Z,4.00
